Time;durP1;ratioP1;P1;durP2;ratioP2;P2;SDS_P1;SDS_P2;PMS_P1;PMS_P2;Temp;Humidity;BMP_temperature;BMP_pressure;BME280_temperature;BME280_humidity;BME280_pressure;Samples;Min_cycle;Max_cycle;Signal;HPM_P1;HPM_P2
2023/06/18 00:00:56;;;;;;;9.40;7.30;;;;;;;14.48;81.16;96466.41;112244;1243;22484;-88
2023/06/18 00:03:45;;;;;;;10.00;7.60;;;;;;;14.52;81.21;96460.65;110789;1242;1873581;-88
2023/06/18 00:06:26;;;;;;;9.30;7.50;;;;;;;14.51;81.06;96460.35;112260;1243;22504;-87
2023/06/18 00:09:07;;;;;;;10.30;7.60;;;;;;;14.45;81.18;96464.23;112236;1243;22596;-87
2023/06/18 00:11:38;;;;;;;8.50;7.60;;;;;;;14.42;81.44;96458.27;112239;1243;22522;-87
2023/06/18 00:14:10;;;;;;;8.30;7.40;;;;;;;14.41;81.64;96464.45;112229;1243;58429;-87
2023/06/18 00:16:48;;;;;;;8.40;7.50;;;;;;;14.40;81.63;96461.68;112242;1243;22524;-87
2023/06/18 00:19:19;;;;;;;8.70;7.80;;;;;;;14.38;81.81;96466.32;112101;1243;22576;-87
2023/06/18 00:21:50;;;;;;;9.30;7.50;;;;;;;14.37;81.88;96460.82;112268;1240;22709;-87
2023/06/18 00:24:23;;;;;;;8.20;7.40;;;;;;;14.36;81.87;96465.36;112156;1243;82224;-87
2023/06/18 00:26:57;;;;;;;9.10;7.70;;;;;;;14.36;81.96;96468.25;112245;1243;27667;-87
2023/06/18 00:29:29;;;;;;;9.90;7.70;;;;;;;14.35;82.01;96468.73;112287;1243;22513;-87
2023/06/18 00:32:00;;;;;;;8.20;6.80;;;;;;;14.37;82.13;96469.77;112270;1243;25254;-87
2023/06/18 00:34:35;;;;;;;7.70;6.90;;;;;;;14.38;81.98;96466.53;112211;1240;47764;-87
2023/06/18 00:37:10;;;;;;;9.00;7.90;;;;;;;14.36;81.85;96467.81;112299;1240;22517;-87
2023/06/18 00:39:40;;;;;;;8.50;7.30;;;;;;;14.33;81.92;96465.95;112284;1239;24243;-86
2023/06/18 00:42:13;;;;;;;8.90;7.20;;;;;;;14.31;81.84;96464.73;112265;1240;22527;-87
2023/06/18 00:44:44;;;;;;;7.20;6.40;;;;;;;14.26;81.90;96464.80;112231;1239;68753;-87
2023/06/18 00:47:14;;;;;;;7.40;6.60;;;;;;;14.22;81.96;96464.75;112297;1243;22506;-87
2023/06/18 00:49:46;;;;;;;7.70;6.90;;;;;;;14.16;81.91;96462.98;112360;1239;23869;-87
2023/06/18 00:52:15;;;;;;;8.50;7.60;;;;;;;14.08;82.02;96460.62;112293;1243;22476;-87
2023/06/18 00:54:47;;;;;;;8.70;7.40;;;;;;;14.05;82.25;96462.65;112212;1243;52133;-87
2023/06/18 00:57:20;;;;;;;10.40;7.40;;;;;;;14.02;82.32;96464.58;112260;1243;22506;-87
2023/06/18 01:00:01;;;;;;;9.00;7.50;;;;;;;13.97;82.40;96463.27;112244;1243;23339;-87
2023/06/18 01:02:30;;;;;;;8.20;6.90;;;;;;;13.96;82.55;96464.64;112284;1243;22497;-86
2023/06/18 01:05:03;;;;;;;8.80;7.10;;;;;;;13.93;82.51;96461.76;112225;1243;57869;-87
2023/06/18 01:07:39;;;;;;;8.40;7.00;;;;;;;13.90;82.56;96465.71;112098;1243;22577;-87
2023/06/18 01:10:14;;;;;;;8.80;7.00;;;;;;;13.87;82.53;96465.38;112305;1240;22552;-86
2023/06/18 01:12:48;;;;;;;9.70;6.30;;;;;;;13.80;82.38;96464.95;112271;1243;24237;-87
2023/06/18 01:15:18;;;;;;;8.50;6.90;;;;;;;13.77;82.67;96462.56;112039;1243;76909;-87
2023/06/18 01:17:49;;;;;;;7.60;6.60;;;;;;;13.77;82.87;96458.46;112284;1243;22505;-87
2023/06/18 01:20:20;;;;;;;7.50;6.60;;;;;;;13.79;83.04;96456.77;112269;1243;23184;-86
2023/06/18 01:22:57;;;;;;;7.90;7.10;;;;;;;13.84;83.09;96456.24;112245;1243;22504;-86
2023/06/18 01:25:32;;;;;;;8.50;6.50;;;;;;;13.87;83.11;96460.68;112198;1243;80377;-86
2023/06/18 01:28:02;;;;;;;9.50;7.00;;;;;;;13.88;82.85;96461.94;112336;1243;22509;-87
2023/06/18 01:30:31;;;;;;;7.10;6.20;;;;;;;13.82;82.64;96462.88;112363;1243;22539;-87
2023/06/18 01:33:03;;;;;;;7.90;6.70;;;;;;;13.79;82.71;96463.47;112258;1243;22515;-86
2023/06/18 01:35:34;;;;;;;7.70;6.90;;;;;;;13.81;82.54;96463.28;112215;1243;55297;-86
2023/06/18 01:38:27;;;;;;;7.80;6.60;;;;;;;13.80;82.50;96466.08;112288;1243;22564;-86
2023/06/18 01:41:10;;;;;;;7.90;6.20;;;;;;;13.83;82.84;96467.98;112272;1243;22490;-86
2023/06/18 01:43:48;;;;;;;8.20;6.70;;;;;;;13.89;82.70;96467.84;112303;1243;22514;-86
2023/06/18 01:46:26;;;;;;;7.60;6.80;;;;;;;13.93;82.58;96475.46;112291;1243;24883;-86
2023/06/18 01:48:59;;;;;;;8.00;6.70;;;;;;;13.93;82.37;96479.58;112121;1242;22512;-86
2023/06/18 01:51:33;;;;;;;8.30;7.40;;;;;;;13.92;82.49;96479.36;112271;1243;22533;-86
2023/06/18 01:54:06;;;;;;;8.10;6.60;;;;;;;13.96;82.70;96478.88;112250;1243;65086;-86
2023/06/18 01:56:37;;;;;;;8.10;7.20;;;;;;;14.02;82.66;96477.88;112305;1243;22520;-87
2023/06/18 01:59:08;;;;;;;8.70;7.50;;;;;;;14.09;82.69;96483.95;112286;1243;22527;-87
2023/06/18 02:01:44;;;;;;;8.30;7.50;;;;;;;14.10;82.28;96483.77;112269;1243;23907;-86
2023/06/18 02:04:14;;;;;;;8.00;7.20;;;;;;;14.08;82.21;96486.59;112235;1240;101539;-86
2023/06/18 02:06:43;;;;;;;7.60;6.80;;;;;;;14.08;82.09;96489.23;112263;1242;22565;-86
2023/06/18 02:09:13;;;;;;;9.50;7.60;;;;;;;14.02;81.54;96486.19;112335;1241;22517;-86
2023/06/18 02:11:46;;;;;;;8.30;7.40;;;;;;;13.95;81.67;96485.02;112285;1243;22545;-86
2023/06/18 02:14:14;;;;;;;9.20;7.60;;;;;;;13.94;81.75;96483.72;112248;1242;72458;-86
2023/06/18 02:16:49;;;;;;;8.30;7.20;;;;;;;13.93;81.71;96489.80;112288;1243;22510;-86
2023/06/18 02:19:18;;;;;;;7.40;6.70;;;;;;;13.90;81.54;96488.10;112326;1243;22512;-85
2023/06/18 02:21:51;;;;;;;7.50;6.70;;;;;;;13.87;81.38;96486.95;112317;1240;22503;-86
2023/06/18 02:24:21;;;;;;;7.30;6.60;;;;;;;13.87;81.54;96488.87;112234;1242;50452;-85
2023/06/18 02:26:49;;;;;;;7.20;6.50;;;;;;;13.90;81.62;96489.60;112279;1242;22520;-86
2023/06/18 02:29:20;;;;;;;7.10;6.40;;;;;;;13.90;81.66;96491.20;112323;1243;25254;-86
2023/06/18 02:31:52;;;;;;;8.30;6.80;;;;;;;13.93;81.83;96490.33;112284;1243;22583;-86
2023/06/18 02:34:27;;;;;;;8.00;6.70;;;;;;;13.95;81.78;96490.73;112251;1240;67446;-85
2023/06/18 02:36:57;;;;;;;8.90;6.60;;;;;;;13.95;81.67;96492.77;112301;1242;25240;-86
2023/06/18 02:39:29;;;;;;;7.60;6.50;;;;;;;13.93;81.59;96495.23;112319;1242;22521;-85
2023/06/18 02:41:58;;;;;;;7.50;6.70;;;;;;;13.93;81.74;96489.54;112297;1243;22481;-85
2023/06/18 02:44:31;;;;;;;7.80;6.80;;;;;;;13.94;81.78;96490.90;112272;1242;58224;-85
2023/06/18 02:47:13;;;;;;;;;;;;;;;;;;;;;
2023/06/18 02:49:42;;;;;;;7.20;6.50;;;;;;;13.92;81.86;96492.84;112315;1242;22534;-86
2023/06/18 02:52:14;;;;;;;8.10;7.10;;;;;;;13.91;81.92;96492.27;112282;1242;24306;-86
2023/06/18 02:54:44;;;;;;;9.60;7.10;;;;;;;13.89;81.72;96491.66;112239;1242;71516;-86
2023/06/18 02:57:14;;;;;;;;;;;;;;;13.83;81.55;96495.70;112326;1243;22463;-86
2023/06/18 02:59:46;;;;;;;7.40;5.80;;;;;;;13.77;81.44;96502.63;112282;1243;22537;-86
2023/06/18 03:02:17;;;;;;;6.70;5.90;;;;;;;13.71;81.46;96500.80;112322;1240;22538;-85
2023/06/18 03:04:49;;;;;;;6.90;6.20;;;;;;;13.72;81.53;96502.72;112290;1242;54634;-86
2023/06/18 03:07:22;;;;;;;7.50;6.30;;;;;;;13.71;81.30;96499.55;112310;1241;22520;-85
2023/06/18 03:09:51;;;;;;;6.40;5.70;;;;;;;13.67;81.26;96500.89;112317;1243;22502;-86
2023/06/18 03:12:20;;;;;;;6.70;5.90;;;;;;;13.59;80.82;96499.50;112289;1242;22513;-86
2023/06/18 03:14:50;;;;;;;7.10;5.70;;;;;;;13.54;81.21;96501.59;112285;1243;51776;-86
2023/06/18 03:17:23;;;;;;;7.40;6.30;;;;;;;13.56;81.49;96501.77;112296;1242;22519;-85
2023/06/18 03:19:58;;;;;;;7.90;6.40;;;;;;;13.57;81.51;96504.03;112318;1243;22558;-85
2023/06/18 03:22:29;;;;;;;7.50;5.60;;;;;;;13.59;81.37;96502.98;112319;1242;22553;-86
2023/06/18 03:25:05;;;;;;;6.80;5.80;;;;;;;13.53;81.35;96504.87;112326;1243;44821;-86
2023/06/18 03:27:37;;;;;;;8.00;6.00;;;;;;;13.35;81.25;96504.45;112350;1238;22546;-86
2023/06/18 03:30:11;;;;;;;8.20;6.50;;;;;;;13.13;81.84;96510.11;112276;1243;22488;-85
2023/06/18 03:32:40;;;;;;;7.50;6.20;;;;;;;13.03;82.46;96511.70;112309;1242;22563;-86
2023/06/18 03:35:10;;;;;;;8.80;6.80;;;;;;;13.01;82.94;96510.91;110899;1235;1836049;-86
2023/06/18 03:37:40;;;;;;;7.60;6.50;;;;;;;13.06;83.40;96513.52;112307;1242;22745;-86
2023/06/18 03:40:10;;;;;;;7.60;6.90;;;;;;;13.14;83.55;96514.80;112298;1243;22517;-86
2023/06/18 03:42:42;;;;;;;7.20;6.30;;;;;;;13.19;83.63;96511.59;112341;1243;22508;-85
2023/06/18 03:45:14;;;;;;;9.20;6.80;;;;;;;13.25;83.74;96512.54;112285;1242;65140;-86
2023/06/18 03:47:45;;;;;;;7.60;6.70;;;;;;;13.31;83.82;96515.39;112312;1242;22556;-86
2023/06/18 03:50:17;;;;;;;6.90;6.20;;;;;;;13.26;83.55;96516.13;112326;1242;22570;-86
2023/06/18 03:52:47;;;;;;;8.80;6.50;;;;;;;13.15;83.63;96517.14;112309;1242;22517;-86
2023/06/18 03:55:20;;;;;;;8.20;6.70;;;;;;;13.05;83.66;96514.75;112047;1242;51828;-86
2023/06/18 03:57:51;;;;;;;9.10;7.60;;;;;;;13.03;84.32;96513.62;112308;1242;22506;-86
2023/06/18 04:00:20;;;;;;;9.70;7.10;;;;;;;13.12;84.68;96519.80;112318;1243;25434;-86
2023/06/18 04:02:52;;;;;;;8.50;7.30;;;;;;;13.17;84.86;96522.11;112332;1243;22568;-86
2023/06/18 04:05:21;;;;;;;8.40;7.60;;;;;;;13.24;84.98;96520.80;112305;1243;42770;-85
2023/06/18 04:07:51;;;;;;;9.10;7.70;;;;;;;13.24;85.02;96523.53;112325;1242;23841;-86
2023/06/18 04:10:20;;;;;;;8.30;7.40;;;;;;;13.26;85.34;96518.80;112326;1241;22723;-86
2023/06/18 04:12:48;;;;;;;9.30;8.20;;;;;;;13.34;85.52;96519.86;112327;1242;22518;-86
2023/06/18 04:15:19;;;;;;;8.50;7.70;;;;;;;13.41;85.60;96517.48;110884;1242;1801468;-86
2023/06/18 04:17:52;;;;;;;10.40;7.90;;;;;;;13.48;85.62;96519.73;112305;1243;22515;-86
2023/06/18 04:20:21;;;;;;;9.60;7.70;;;;;;;13.58;85.94;96522.02;112309;1242;22533;-86
2023/06/18 04:22:53;;;;;;;9.90;8.50;;;;;;;13.71;86.17;96519.20;112306;1242;22505;-86
2023/06/18 04:25:22;;;;;;;9.80;8.10;;;;;;;13.86;86.42;96517.79;110709;1243;2122383;-87
2023/06/18 04:27:52;;;;;;;9.00;7.60;;;;;;;13.99;86.39;96517.23;112337;1242;22507;-87
2023/06/18 04:30:29;;;;;;;9.00;7.50;;;;;;;14.11;86.19;96522.48;112357;1243;22591;-87
2023/06/18 04:33:05;;;;;;;10.10;7.50;;;;;;;14.24;85.85;96522.73;112346;1242;22522;-88
2023/06/18 04:35:35;;;;;;;8.80;7.80;;;;;;;14.34;85.71;96521.31;112287;1242;59671;-87
2023/06/18 04:38:06;;;;;;;9.70;8.30;;;;;;;14.43;85.38;96519.30;112310;1243;22581;-88
2023/06/18 04:40:38;;;;;;;8.30;7.40;;;;;;;14.55;85.37;96517.49;112311;1242;23212;-87
2023/06/18 04:43:09;;;;;;;8.70;7.80;;;;;;;14.67;85.23;96520.20;112315;1243;22533;-88
2023/06/18 04:45:41;;;;;;;8.30;7.40;;;;;;;14.77;85.09;96521.14;112280;1243;46845;-88
2023/06/18 04:48:11;;;;;;;8.00;6.90;;;;;;;14.89;84.92;96523.69;112322;1243;22528;-88
2023/06/18 04:50:47;;;;;;;10.40;7.00;;;;;;;15.00;84.70;96525.92;112307;1241;22567;-87
2023/06/18 04:53:17;;;;;;;9.50;7.80;;;;;;;15.06;84.18;96528.60;112324;1243;22556;-88
2023/06/18 04:55:46;;;;;;;11.30;7.00;;;;;;;15.11;84.05;96531.16;112265;1242;69905;-88
2023/06/18 04:58:19;;;;;;;7.40;6.50;;;;;;;15.14;83.73;96530.79;112335;1235;22552;-87
2023/06/18 05:00:48;;;;;;;8.60;7.00;;;;;;;15.12;83.43;96533.30;112310;1236;25535;-88
2023/06/18 05:03:20;;;;;;;8.00;7.20;;;;;;;15.14;83.33;96529.88;112347;1243;22506;-88
2023/06/18 05:05:51;;;;;;;7.30;6.10;;;;;;;15.15;83.29;96534.35;112290;1243;56541;-87
2023/06/18 05:08:21;;;;;;;7.70;6.90;;;;;;;15.20;83.32;96539.55;112121;1242;259653;-88
2023/06/18 05:10:52;;;;;;;8.90;7.70;;;;;;;15.24;83.13;96543.56;112330;1242;22537;-88
2023/06/18 05:13:26;;;;;;;8.30;6.90;;;;;;;15.31;83.25;96546.18;112323;1243;22538;-88
2023/06/18 05:16:08;;;;;;;7.50;6.70;;;;;;;15.51;83.49;96550.55;110505;1243;2322381;-87
2023/06/18 05:18:39;;;;;;;8.10;7.30;;;;;;;15.71;82.98;96552.40;112332;1242;22631;-87
2023/06/18 05:21:08;;;;;;;7.60;6.80;;;;;;;15.83;82.73;96549.59;112342;1239;25239;-88
2023/06/18 05:23:39;;;;;;;7.30;6.30;;;;;;;16.04;83.02;96556.21;112318;1242;22515;-87
2023/06/18 05:26:12;;;;;;;7.10;6.40;;;;;;;16.85;84.19;96548.98;112254;1243;93484;-86
2023/06/18 05:28:41;;;;;;;7.20;6.50;;;;;;;18.26;84.45;96547.36;112315;1242;24454;-87
2023/06/18 05:31:14;;;;;;;7.20;6.20;;;;;;;19.53;81.99;96548.87;112330;1239;22518;-87
2023/06/18 05:33:42;;;;;;;8.10;6.50;;;;;;;19.91;77.38;96555.90;112351;1243;22693;-87
2023/06/18 05:36:13;;;;;;;6.90;6.20;;;;;;;19.59;76.00;96555.31;112276;1243;74501;-87
2023/06/18 05:38:46;;;;;;;8.20;6.20;;;;;;;19.52;75.41;96558.91;112319;1239;22547;-87
2023/06/18 05:41:15;;;;;;;8.70;6.70;;;;;;;19.59;75.41;96562.32;112323;1242;22533;-87
2023/06/18 05:43:45;;;;;;;7.80;6.80;;;;;;;20.52;76.68;96564.10;112303;1242;22543;-87
2023/06/18 05:46:15;;;;;;;7.20;6.50;;;;;;;21.77;75.00;96566.88;112238;1242;69681;-88
2023/06/18 05:48:45;;;;;;;10.10;6.50;;;;;;;22.73;72.82;96570.60;112337;1242;22587;-88
2023/06/18 05:51:19;;;;;;;7.90;6.20;;;;;;;22.78;68.83;96574.70;112322;1236;22518;-88
2023/06/18 05:53:49;;;;;;;6.50;5.70;;;;;;;22.41;67.12;96575.05;112334;1242;22557;-87
2023/06/18 05:56:20;;;;;;;7.20;5.90;;;;;;;21.40;65.65;96578.02;112289;1242;50770;-87
2023/06/18 05:58:49;;;;;;;6.70;5.90;;;;;;;20.44;66.16;96582.89;112326;1242;22799;-87
2023/06/18 06:01:18;;;;;;;6.10;5.50;;;;;;;19.81;66.91;96583.88;112341;1242;22506;-88
2023/06/18 06:03:47;;;;;;;8.30;6.10;;;;;;;19.44;67.38;96582.30;112315;1242;25232;-88
2023/06/18 06:06:19;;;;;;;6.10;5.50;;;;;;;18.88;67.63;96584.55;112279;1242;56736;-87
2023/06/18 06:08:51;;;;;;;6.70;6.00;;;;;;;18.49;68.26;96585.77;112315;1242;24117;-88
2023/06/18 06:11:22;;;;;;;7.40;6.20;;;;;;;18.16;68.82;96590.63;112342;1242;22620;-87
2023/06/18 06:13:51;;;;;;;7.10;6.40;;;;;;;17.94;69.60;96592.58;112301;1242;25466;-87
2023/06/18 06:16:24;;;;;;;7.50;6.70;;;;;;;17.86;69.88;96591.55;112268;1239;50216;-87
2023/06/18 06:18:54;;;;;;;11.60;7.20;;;;;;;17.59;69.98;96587.29;112331;1242;22534;-87
2023/06/18 06:21:26;;;;;;;7.70;6.70;;;;;;;17.33;70.64;96589.70;112297;1242;22542;-87
2023/06/18 06:23:58;;;;;;;7.70;6.70;;;;;;;17.21;71.34;96591.74;112326;1242;24259;-87
2023/06/18 06:26:27;;;;;;;9.30;6.60;;;;;;;17.16;71.65;96593.08;112261;1242;74185;-87
2023/06/18 06:29:00;;;;;;;8.40;6.50;;;;;;;17.11;71.92;96598.52;112306;1242;22501;-87
2023/06/18 06:31:29;;;;;;;8.30;6.90;;;;;;;17.09;72.56;96600.35;112309;1243;25339;-88
2023/06/18 06:33:59;;;;;;;8.00;6.70;;;;;;;17.28;73.20;96599.15;112330;1242;22535;-87
2023/06/18 06:36:30;;;;;;;7.30;6.50;;;;;;;17.59;73.66;96597.92;112263;1242;44704;-87
2023/06/18 06:38:59;;;;;;;8.00;6.60;;;;;;;17.71;72.92;96598.02;112333;1240;22522;-87
2023/06/18 06:41:32;;;;;;;8.80;7.00;;;;;;;17.66;72.75;96591.77;112337;1242;22513;-87
2023/06/18 06:44:02;;;;;;;8.80;6.80;;;;;;;17.60;72.87;96594.06;112299;1242;22504;-87
2023/06/18 06:46:34;;;;;;;8.10;6.80;;;;;;;17.54;73.01;96594.19;112323;1242;22509;-87
2023/06/18 06:49:07;;;;;;;8.70;6.80;;;;;;;17.57;73.69;96595.71;112326;1243;22555;-87
2023/06/18 06:51:37;;;;;;;9.40;7.40;;;;;;;18.02;74.94;96596.75;112311;1241;22594;-87
2023/06/18 06:54:09;;;;;;;8.50;7.20;;;;;;;18.83;75.13;96593.42;112328;1242;22538;-87
2023/06/18 06:56:40;;;;;;;7.90;6.90;;;;;;;19.64;74.00;96589.88;112305;1242;22520;-87
2023/06/18 06:59:10;;;;;;;6.80;6.10;;;;;;;20.48;72.72;96591.93;112306;1242;22522;-88
2023/06/18 07:01:42;;;;;;;6.20;5.50;;;;;;;21.09;71.11;96591.66;112287;1242;22495;-87
2023/06/18 07:04:12;;;;;;;6.70;5.90;;;;;;;21.67;69.85;96584.14;112246;1242;63517;-87
2023/06/18 07:06:42;;;;;;;7.20;5.80;;;;;;;22.12;68.09;96580.24;112314;1243;22515;-87
2023/06/18 07:09:14;;;;;;;6.50;5.50;;;;;;;22.59;67.11;96577.58;112316;1242;22490;-87
2023/06/18 07:11:44;;;;;;;6.90;5.90;;;;;;;22.89;66.29;96571.54;112323;1242;22545;-87
2023/06/18 07:14:14;;;;;;;8.20;6.40;;;;;;;23.24;65.01;96573.70;112276;1239;53165;-87
2023/06/18 07:16:41;;;;;;;;;;;;;;;23.39;64.05;96578.88;112337;1242;22802;-87
2023/06/18 07:19:11;;;;;;;6.00;5.20;;;;;;;23.70;63.69;96581.10;112335;1242;22488;-88
2023/06/18 07:21:40;;;;;;;6.80;6.10;;;;;;;23.79;61.87;96576.14;112286;1239;25398;-87
2023/06/18 07:24:10;;;;;;;6.70;5.70;;;;;;;23.94;61.79;96575.11;112318;1243;22563;-87
2023/06/18 07:26:41;;;;;;;5.30;4.80;;;;;;;24.30;61.21;96575.14;112302;1240;23963;-87
2023/06/18 07:29:12;;;;;;;5.40;4.60;;;;;;;24.52;60.45;96575.81;112283;1242;22526;-88
2023/06/18 07:31:45;;;;;;;6.00;5.30;;;;;;;24.78;59.87;96573.63;112311;1242;22516;-88
2023/06/18 07:34:16;;;;;;;5.10;4.60;;;;;;;25.00;59.46;96574.58;112248;1242;62347;-88
2023/06/18 07:36:49;;;;;;;6.80;5.30;;;;;;;24.98;57.85;96575.41;112303;1242;22511;-87
2023/06/18 07:39:21;;;;;;;7.20;5.60;;;;;;;24.85;57.56;96570.91;112305;1242;23304;-88
2023/06/18 07:41:50;;;;;;;5.80;5.30;;;;;;;24.54;57.37;96570.89;112306;1242;25402;-88
2023/06/18 07:44:19;;;;;;;8.30;5.70;;;;;;;24.48;57.80;96571.89;112253;1242;40721;-89
2023/06/18 07:46:53;;;;;;;6.30;5.40;;;;;;;24.47;57.41;96571.12;112326;1242;24340;-89
2023/06/18 07:49:27;;;;;;;5.80;5.20;;;;;;;24.06;56.64;96570.94;112329;1241;22809;-88
2023/06/18 07:51:57;;;;;;;5.50;4.90;;;;;;;24.03;57.75;96566.96;112261;1242;22512;-87
2023/06/18 07:54:34;;;;;;;5.30;4.80;;;;;;;24.44;58.18;96570.23;112083;1242;74677;-89
2023/06/18 07:57:06;;;;;;;5.60;5.10;;;;;;;24.80;57.29;96567.46;112310;1237;22541;-88
2023/06/18 07:59:37;;;;;;;5.50;4.90;;;;;;;24.93;56.69;96569.45;112299;1242;22498;-89
2023/06/18 08:02:06;;;;;;;5.80;5.20;;;;;;;24.75;56.07;96564.92;112314;1242;22509;-89
2023/06/18 08:04:39;;;;;;;8.70;5.00;;;;;;;24.60;56.01;96565.09;112248;1243;56220;-89
2023/06/18 08:07:09;;;;;;;6.40;5.10;;;;;;;24.18;55.46;96567.55;112254;1242;22509;-89
2023/06/18 08:09:39;;;;;;;6.80;5.10;;;;;;;23.68;55.45;96566.77;112346;1242;22520;-88
2023/06/18 08:12:11;;;;;;;5.60;4.80;;;;;;;23.25;56.23;96572.39;112309;1239;22556;-89
2023/06/18 08:14:45;;;;;;;6.40;5.10;;;;;;;22.96;56.88;96570.13;112255;1242;67973;-89
2023/06/18 08:17:16;;;;;;;6.50;5.10;;;;;;;22.66;56.93;96568.61;112318;1242;22516;-88
2023/06/18 08:19:47;;;;;;;6.20;5.40;;;;;;;22.37;57.36;96572.75;112341;1242;22719;-89
2023/06/18 08:22:17;;;;;;;5.90;5.30;;;;;;;22.15;57.59;96572.61;112297;1242;25268;-88
2023/06/18 08:24:49;;;;;;;5.50;5.00;;;;;;;21.93;58.14;96572.80;112225;1242;73370;-88
2023/06/18 08:27:18;;;;;;;6.20;5.60;;;;;;;21.79;58.56;96570.02;112291;1239;22557;-88
2023/06/18 08:29:47;;;;;;;5.50;5.00;;;;;;;21.74;58.94;96568.83;112269;1228;22508;-89
2023/06/18 08:32:16;;;;;;;6.00;4.60;;;;;;;21.66;59.01;96575.74;112286;1238;22481;-88
2023/06/18 08:34:48;;;;;;;5.70;5.10;;;;;;;21.55;59.02;96573.48;112099;1242;44273;-88
2023/06/18 08:37:18;;;;;;;6.50;5.20;;;;;;;21.43;59.31;96574.58;112304;1242;24339;-88
2023/06/18 08:39:49;;;;;;;6.20;5.20;;;;;;;21.35;59.85;96573.46;112283;1242;25603;-88
2023/06/18 08:42:22;;;;;;;5.50;4.90;;;;;;;21.28;59.71;96579.22;112291;1242;22591;-88
2023/06/18 08:44:54;;;;;;;6.90;5.50;;;;;;;21.20;59.93;96580.46;112256;1242;61028;-88
2023/06/18 08:47:25;;;;;;;5.80;5.20;;;;;;;21.13;59.93;96581.28;112265;1242;22504;-88
2023/06/18 08:50:00;;;;;;;5.80;5.20;;;;;;;21.03;60.13;96578.27;112243;1242;25466;-88
2023/06/18 08:52:36;;;;;;;6.60;5.10;;;;;;;20.96;60.42;96572.53;112273;1242;25212;-89
2023/06/18 08:55:13;;;;;;;6.10;5.20;;;;;;;20.89;60.79;96575.05;112196;1242;86529;-88
2023/06/18 08:57:55;;;;;;;6.30;5.20;;;;;;;20.85;60.82;96578.73;112285;1242;23707;-88
2023/06/18 09:00:24;;;;;;;8.40;4.90;;;;;;;20.81;61.09;96574.52;112279;1239;22525;-88
2023/06/18 09:02:54;;;;;;;6.30;5.20;;;;;;;20.82;61.35;96578.08;112283;1242;22508;-87
2023/06/18 09:05:26;;;;;;;6.00;4.80;;;;;;;21.00;62.18;96573.17;112192;1242;95675;-87
2023/06/18 09:07:55;;;;;;;7.80;5.90;;;;;;;21.26;62.49;96565.21;112133;1239;22521;-88
2023/06/18 09:10:25;;;;;;;6.90;5.80;;;;;;;21.54;62.89;96567.05;112214;1242;22211;-88
2023/06/18 09:12:58;;;;;;;7.30;6.10;;;;;;;21.83;62.62;96563.02;112170;1242;23341;-89
2023/06/18 09:15:27;;;;;;;7.00;6.30;;;;;;;22.06;62.05;96560.61;112225;1242;68370;-89
2023/06/18 09:17:56;;;;;;;7.40;6.60;;;;;;;22.20;61.45;96565.22;112369;1242;25439;-88
2023/06/18 09:20:29;;;;;;;8.80;6.10;;;;;;;22.01;60.78;96567.88;112302;1242;24340;-93
2023/06/18 09:23:06;;;;;;;8.80;6.40;;;;;;;21.80;60.51;96570.19;112462;1237;23793;-88
2023/06/18 09:25:37;;;;;;;6.50;5.90;;;;;;;21.68;60.73;96575.23;112484;1242;47847;-85
2023/06/18 09:28:06;;;;;;;47.20;8.80;;;;;;;21.61;60.41;96577.16;112449;1242;23328;-88
2023/06/18 09:30:34;;;;;;;7.90;5.80;;;;;;;21.46;63.02;96579.35;112456;1242;22512;-87
2023/06/18 09:33:30;;;;;;;6.00;5.40;;;;;;;21.17;62.92;96583.15;112336;1237;22488;-92
2023/06/18 09:36:03;;;;;;;6.70;6.00;;;;;;;20.97;62.96;96579.64;112296;1242;38216;-89
2023/06/18 09:38:37;;;;;;;6.20;5.60;;;;;;;20.91;64.30;96589.20;112237;1241;22516;-87
2023/06/18 09:41:19;;;;;;;6.90;6.20;;;;;;;20.87;63.81;96591.63;112273;1242;22506;-83
2023/06/18 09:43:50;;;;;;;7.20;6.50;;;;;;;20.66;63.59;96593.77;112261;1242;22583;-87
2023/06/18 09:46:25;;;;;;;7.70;6.90;;;;;;;20.46;63.48;96592.11;110511;1239;2163443;-93
2023/06/18 09:49:06;;;;;;;7.50;6.60;;;;;;;20.16;63.75;96594.14;112202;1242;22505;-90
2023/06/18 09:51:51;;;;;;;7.70;6.90;;;;;;;19.97;64.65;96593.82;112190;1242;22957;-91
2023/06/18 09:54:40;;;;;;;6.70;6.00;;;;;;;19.91;65.10;96593.72;112272;1242;22548;-90
2023/06/18 09:57:10;;;;;;;5.40;4.90;;;;;;;19.84;64.66;96599.81;112252;1242;22615;-91
2023/06/18 09:59:41;;;;;;;6.30;5.10;;;;;;;19.67;64.30;96593.23;112263;1242;22589;-91
2023/06/18 10:02:13;;;;;;;10.20;5.60;;;;;;;19.51;64.73;96593.92;112264;1242;22513;-91
2023/06/18 10:04:43;;;;;;;6.60;5.90;;;;;;;19.40;65.62;96591.55;112210;1239;77303;-87
2023/06/18 10:07:17;;;;;;;9.50;6.60;;;;;;;19.27;66.41;96590.91;112243;1242;22519;-87
2023/06/18 10:09:51;;;;;;;11.40;6.80;;;;;;;19.29;68.32;96589.82;112247;1242;22504;-88
2023/06/18 10:12:23;;;;;;;8.10;7.20;;;;;;;19.49;69.79;96586.02;112283;1242;22561;-88
2023/06/18 10:14:55;;;;;;;8.40;7.50;;;;;;;19.80;71.21;96583.86;111195;1239;1737719;-89
2023/06/18 10:17:31;;;;;;;8.30;6.30;;;;;;;20.20;72.62;96580.65;112490;1239;22611;-87
2023/06/18 10:20:04;;;;;;;8.50;7.20;;;;;;;20.51;71.77;96576.73;112471;1239;22623;-88
2023/06/18 10:22:37;;;;;;;7.60;6.30;;;;;;;20.72;70.82;96572.61;112386;1239;22516;-87
2023/06/18 10:25:12;;;;;;;9.90;7.80;;;;;;;20.85;70.55;96571.00;112321;1242;60131;-88
2023/06/18 10:27:42;;;;;;;8.30;7.20;;;;;;;21.00;70.74;96565.25;112308;1243;22503;-88
2023/06/18 10:30:13;;;;;;;10.00;6.40;;;;;;;21.09;69.73;96565.05;112264;1242;22542;-88
2023/06/18 10:32:53;;;;;;;8.30;6.20;;;;;;;21.04;68.89;96564.65;112209;1239;22544;-88
2023/06/18 10:35:34;;;;;;;8.30;6.20;;;;;;;21.02;67.93;96566.14;112172;1239;86132;-88
2023/06/18 10:38:05;;;;;;;7.60;6.60;;;;;;;21.10;67.73;96572.02;112222;1242;22552;-88
2023/06/18 10:40:42;;;;;;;5.30;4.80;;;;;;;21.13;67.84;96572.98;112199;1242;22607;-88
2023/06/18 10:43:16;;;;;;;6.30;5.60;;;;;;;21.20;66.62;96568.20;112134;1242;24178;-88
2023/06/18 10:46:09;;;;;;;4.20;3.30;;;;;;;21.09;64.89;96567.17;112203;1242;73731;-88
2023/06/18 10:48:41;;;;;;;2.80;2.60;;;;;;;20.78;62.14;96567.54;112262;1242;22526;-88
2023/06/18 10:51:25;;;;;;;3.80;3.40;;;;;;;20.62;61.35;96573.24;112235;1242;22543;-88
2023/06/18 10:54:20;;;;;;;4.80;4.20;;;;;;;20.57;61.76;96575.90;112211;1239;22599;-88
2023/06/18 10:56:59;;;;;;;5.00;4.10;;;;;;;20.61;62.72;96578.84;112187;1242;52077;-88
2023/06/18 10:59:41;;;;;;;4.90;4.20;;;;;;;20.66;62.56;96576.66;112240;1242;22473;-89
2023/06/18 11:02:39;;;;;;;6.20;4.50;;;;;;;20.66;62.41;96579.52;112230;1235;22638;-88
2023/06/18 11:05:16;;;;;;;5.20;4.70;;;;;;;20.56;62.12;96582.55;112155;1242;83078;-89
2023/06/18 11:08:01;;;;;;;4.80;4.40;;;;;;;20.37;61.67;96579.24;112257;1239;22543;-88
2023/06/18 11:10:40;;;;;;;4.70;4.30;;;;;;;20.24;61.75;96578.44;112231;1242;24330;-89
2023/06/18 11:13:32;;;;;;;5.30;4.80;;;;;;;20.12;61.93;96575.89;112235;1242;23309;-88
2023/06/18 11:16:10;;;;;;;4.90;4.40;;;;;;;20.06;62.75;96581.71;112144;1242;90884;-89
2023/06/18 11:18:48;;;;;;;4.80;4.40;;;;;;;20.06;63.07;96580.17;112203;1242;22641;-88
2023/06/18 11:21:20;;;;;;;5.20;4.70;;;;;;;20.05;63.34;96577.23;112226;1242;22502;-88
2023/06/18 11:23:50;;;;;;;5.30;4.30;;;;;;;20.05;63.89;96579.08;112205;1242;22512;-88
2023/06/18 11:26:21;;;;;;;5.50;5.00;;;;;;;20.03;64.11;96578.48;112098;1242;119972;-87
2023/06/18 11:28:51;;;;;;;5.80;4.90;;;;;;;20.02;64.72;96574.06;112231;1242;25475;-88
2023/06/18 11:31:29;;;;;;;5.70;5.10;;;;;;;20.06;65.15;96577.64;112257;1242;22505;-87
2023/06/18 11:34:08;;;;;;;5.10;4.50;;;;;;;20.08;65.09;96577.78;112114;1242;22571;-88
2023/06/18 11:36:41;;;;;;;6.10;5.50;;;;;;;20.08;65.05;96572.31;112102;1242;54332;-87
2023/06/18 11:39:14;;;;;;;5.10;4.60;;;;;;;20.09;65.69;96568.55;112209;1242;22512;-87
2023/06/18 11:41:45;;;;;;;5.80;4.70;;;;;;;20.12;65.07;96564.30;112217;1243;22547;-87
2023/06/18 11:44:14;;;;;;;5.30;4.80;;;;;;;20.27;65.56;96559.48;112229;1242;22500;-88
2023/06/18 11:46:43;;;;;;;5.10;4.60;;;;;;;20.54;65.51;96555.48;112158;1239;76850;-87
2023/06/18 11:49:17;;;;;;;6.60;5.50;;;;;;;20.78;64.72;96550.83;112232;1242;22987;-87
2023/06/18 11:51:51;;;;;;;5.10;4.60;;;;;;;21.05;64.70;96538.17;112209;1242;22546;-87